Time;durP1;ratioP1;P1;durP2;ratioP2;P2;SDS_P1;SDS_P2;PMS_P1;PMS_P2;Temp;Humidity;BMP_temperature;BMP_pressure;BME280_temperature;BME280_humidity;BME280_pressure;Samples;Min_cycle;Max_cycle;Signal;HPM_P1;HPM_P2
2021/12/22 00:01:42;;;;;;;68.60;32.53;;;;;;;-2.72;92.47;102563.34;5087157;28;20031;-84
2021/12/22 00:04:08;;;;;;;76.47;33.40;;;;;;;-2.76;91.97;102559.03;5080926;28;20024;-84
2021/12/22 00:06:34;;;;;;;68.93;32.00;;;;;;;-2.85;91.92;102552.06;5088772;28;20403;-84
2021/12/22 00:09:01;;;;;;;67.70;32.17;;;;;;;-2.91;91.70;102557.16;5087417;28;20051;-84
2021/12/22 00:11:28;;;;;;;78.07;33.42;;;;;;;-2.89;91.74;102565.75;5086995;28;20030;-84
2021/12/22 00:13:54;;;;;;;69.75;33.35;;;;;;;-2.97;91.30;102562.25;5094785;28;20024;-84
2021/12/22 00:16:19;;;;;;;74.47;32.53;;;;;;;-3.02;91.02;102551.91;5087404;28;20024;-84
2021/12/22 00:18:45;;;;;;;69.80;32.95;;;;;;;-3.04;90.77;102556.19;5088782;28;20032;-84
2021/12/22 00:21:14;;;;;;;69.82;32.35;;;;;;;-3.08;91.06;102558.72;5083815;28;20052;-85
2021/12/22 00:23:40;;;;;;;67.75;31.83;;;;;;;-3.19;90.61;102545.75;5088552;28;20028;-84
2021/12/22 00:26:06;;;;;;;68.65;32.58;;;;;;;-3.25;90.81;102538.81;5088102;28;20391;-84
2021/12/22 00:28:32;;;;;;;70.88;32.95;;;;;;;-3.20;90.99;102555.19;5089346;28;20024;-84
2021/12/22 00:31:08;;;;;;;72.85;33.30;;;;;;;-3.22;90.47;102567.13;5090157;28;20403;-85
2021/12/22 00:33:38;;;;;;;64.65;32.47;;;;;;;-3.24;90.79;102553.41;5092090;28;20053;-84
2021/12/22 00:36:03;;;;;;;72.22;33.97;;;;;;;-3.32;90.98;102537.03;5089441;28;20028;-84
2021/12/22 00:38:29;;;;;;;77.30;34.47;;;;;;;-3.26;91.26;102549.94;5090345;28;20395;-84
2021/12/22 00:40:54;;;;;;;77.00;34.47;;;;;;;-3.23;92.24;102543.97;5093410;28;20099;-85
2021/12/22 00:43:20;;;;;;;68.55;34.20;;;;;;;-3.23;91.89;102554.25;5091272;28;20059;-84
2021/12/22 00:45:47;;;;;;;78.60;34.53;;;;;;;-3.25;91.36;102553.38;5092680;28;20063;-84
2021/12/22 00:48:12;;;;;;;77.72;35.65;;;;;;;-3.27;91.62;102557.66;5093327;28;20024;-83
2021/12/22 00:50:40;;;;;;;72.05;35.20;;;;;;;-3.27;91.37;102553.38;5092548;28;20032;-84
2021/12/22 00:53:07;;;;;;;73.22;33.45;;;;;;;-3.27;91.62;102555.94;5090852;28;20024;-84
2021/12/22 00:55:33;;;;;;;74.85;32.92;;;;;;;-3.41;91.24;102536.94;5084696;28;20031;-84
2021/12/22 00:57:58;;;;;;;75.97;34.17;;;;;;;-3.31;91.04;102555.91;5091417;28;20020;-84
2021/12/22 01:00:26;;;;;;;70.40;32.75;;;;;;;-3.36;91.58;102548.13;5090520;28;20024;-84
2021/12/22 01:02:52;;;;;;;77.03;33.67;;;;;;;-3.32;91.62;102556.75;5092464;28;20388;-84
2021/12/22 01:05:18;;;;;;;75.35;34.72;;;;;;;-3.31;92.11;102546.47;5091568;28;20102;-84
2021/12/22 01:07:46;;;;;;;70.53;33.03;;;;;;;-3.25;91.90;102561.97;5091938;28;20107;-84
2021/12/22 01:10:17;;;;;;;74.82;32.80;;;;;;;-3.29;91.79;102556.78;5092544;28;20054;-84
2021/12/22 01:12:42;;;;;;;72.38;32.28;;;;;;;-3.26;91.59;102560.25;5094952;28;20035;-84
2021/12/22 01:15:14;;;;;;;69.63;33.60;;;;;;;-3.31;91.55;102559.34;5091350;28;20020;-84
2021/12/22 01:17:45;;;;;;;68.80;32.30;;;;;;;-3.30;91.57;102563.63;5091001;28;20084;-84
2021/12/22 01:20:30;;;;;;;69.95;33.03;;;;;;;-3.36;91.27;102553.28;5084081;28;20019;-84
2021/12/22 01:23:02;;;;;;;66.43;31.63;;;;;;;-3.39;90.64;102540.38;5090426;28;20024;-84
2021/12/22 01:25:29;;;;;;;70.57;31.75;;;;;;;-3.43;90.84;102545.47;5091310;28;20020;-84
2021/12/22 01:27:55;;;;;;;67.60;31.58;;;;;;;-3.42;91.17;102548.06;5090791;28;20472;-84
2021/12/22 01:30:26;;;;;;;72.57;34.33;;;;;;;-3.44;91.29;102539.47;5084181;28;20028;-84
2021/12/22 01:32:54;;;;;;;65.13;31.80;;;;;;;-3.48;91.70;102532.56;5091068;28;20023;-84
2021/12/22 01:35:23;;;;;;;74.95;33.53;;;;;;;-3.52;91.17;102526.53;5091455;28;20028;-84
2021/12/22 01:37:49;;;;;;;63.80;30.70;;;;;;;-3.52;91.15;102535.97;5092155;28;20044;-84
2021/12/22 01:40:16;;;;;;;65.45;31.17;;;;;;;-3.47;91.37;102539.44;5091484;28;20055;-84
2021/12/22 01:42:42;;;;;;;66.95;31.50;;;;;;;-3.52;91.28;102534.25;5090584;28;20039;-84
2021/12/22 01:45:36;;;;;;;69.80;32.50;;;;;;;-3.45;91.76;102542.88;5089641;28;20461;-84
2021/12/22 01:50:50;;;;;;;64.63;31.30;;;;;;;-3.47;91.85;102524.88;5092330;28;20093;-84
2021/12/22 01:53:22;;;;;;;66.93;30.85;;;;;;;-3.37;91.91;102533.53;5090404;28;20028;-84
2021/12/22 01:56:01;;;;;;;65.28;31.00;;;;;;;-3.34;92.13;102541.28;5090129;28;20417;-84
2021/12/22 01:58:48;;;;;;;69.22;31.48;;;;;;;-3.39;92.08;102521.50;5083155;28;20020;-84
2021/12/22 02:01:15;;;;;;;69.30;31.67;;;;;;;-3.38;92.45;102526.66;5091016;28;20031;-84
2021/12/22 02:03:41;;;;;;;63.60;31.13;;;;;;;-3.29;92.39;102534.47;5082002;28;20031;-84
2021/12/22 02:06:08;;;;;;;59.35;29.52;;;;;;;-3.38;92.67;102525.81;5090757;28;20512;-84
2021/12/22 02:08:38;;;;;;;71.85;31.10;;;;;;;-3.35;92.54;102539.56;5091098;28;20388;-84
2021/12/22 02:11:04;;;;;;;64.28;29.60;;;;;;;-3.35;92.33;102549.00;5091914;28;20051;-84
2021/12/22 02:13:35;;;;;;;65.65;31.25;;;;;;;-3.32;92.70;102559.31;5095458;28;20392;-84
2021/12/22 02:16:09;;;;;;;63.05;29.90;;;;;;;-3.37;91.88;102556.69;5091181;28;20036;-84
2021/12/22 02:18:37;;;;;;;60.33;30.13;;;;;;;-3.37;91.92;102561.84;5089521;28;20039;-84
2021/12/22 02:21:04;;;;;;;68.05;30.55;;;;;;;-3.41;91.90;102554.06;5085519;28;20058;-83
2021/12/22 02:23:30;;;;;;;63.95;30.35;;;;;;;-3.44;91.59;102549.75;5089333;28;20169;-83
2021/12/22 02:26:01;;;;;;;60.40;28.85;;;;;;;-3.46;91.60;102546.31;5091071;28;20467;-83
2021/12/22 02:28:31;;;;;;;59.65;28.90;;;;;;;-3.44;91.63;102552.34;5089848;28;20391;-83
2021/12/22 02:30:57;;;;;;;55.50;28.67;;;;;;;-3.50;91.21;102547.13;5089338;28;20016;-83
2021/12/22 02:33:35;;;;;;;59.38;28.42;;;;;;;-3.52;91.55;102538.53;5088910;28;20089;-83
2021/12/22 02:38:54;;;;;;;62.65;28.42;;;;;;;-3.47;91.75;102550.59;5087584;28;20044;-83
2021/12/22 02:41:26;;;;;;;62.58;28.20;;;;;;;-3.55;91.93;102544.50;5090478;28;20016;-84
2021/12/22 02:43:55;;;;;;;66.47;29.00;;;;;;;-3.47;92.07;102555.75;5082251;28;20044;-84
2021/12/22 02:46:24;;;;;;;63.65;29.10;;;;;;;-3.55;92.22;102546.22;5089781;28;20069;-83
2021/12/22 02:48:50;;;;;;;58.42;27.85;;;;;;;-3.56;91.77;102550.50;5090362;28;20066;-83
2021/12/22 02:51:17;;;;;;;60.63;28.73;;;;;;;-3.62;91.48;102537.53;5089725;28;20028;-84
2021/12/22 02:53:51;;;;;;;59.55;27.58;;;;;;;-3.67;91.69;102530.63;5087255;28;20036;-83
2021/12/22 02:56:39;;;;;;;60.50;28.52;;;;;;;-3.59;91.77;102549.59;5088446;28;20073;-83
2021/12/22 02:59:31;;;;;;;61.92;27.40;;;;;;;-3.59;91.55;102544.47;5089350;28;20070;-83
2021/12/22 03:02:08;;;;;;;53.95;26.58;;;;;;;-3.60;91.44;102537.56;5086094;28;20043;-83
2021/12/22 03:04:43;;;;;;;57.97;26.50;;;;;;;-3.69;91.18;102527.16;5088433;28;20023;-83
2021/12/22 03:07:16;;;;;;;53.08;26.10;;;;;;;-3.72;90.84;102537.41;5082298;28;20498;-83
2021/12/22 03:09:43;;;;;;;57.40;25.85;;;;;;;-3.74;90.81;102539.09;5086098;28;20036;-83
2021/12/22 03:12:12;;;;;;;54.00;26.50;;;;;;;-3.71;90.98;102557.16;5082879;28;20065;-83
2021/12/22 03:14:38;;;;;;;54.42;27.15;;;;;;;-3.75;90.98;102552.81;5089763;28;20032;-83
2021/12/22 03:17:03;;;;;;;53.08;26.88;;;;;;;-3.78;90.66;102563.94;5088826;28;20842;-83
2021/12/22 03:19:36;;;;;;;55.92;26.27;;;;;;;-3.80;90.93;102570.75;5089317;28;20031;-83
2021/12/22 03:22:05;;;;;;;56.53;26.90;;;;;;;-3.89;90.67;102556.09;5089638;28;20123;-83
2021/12/22 03:24:34;;;;;;;52.53;26.48;;;;;;;-3.85;90.71;102568.13;5089536;28;20426;-83
2021/12/22 03:27:02;;;;;;;51.88;26.60;;;;;;;-3.86;90.90;102566.41;5082647;28;20400;-83
2021/12/22 03:29:29;;;;;;;49.05;25.27;;;;;;;-3.88;90.49;102568.09;5088342;28;20073;-83
2021/12/22 03:31:54;;;;;;;53.45;26.35;;;;;;;-3.95;90.37;102560.28;5090064;28;20032;-82
2021/12/22 03:34:20;;;;;;;59.78;27.05;;;;;;;-4.00;90.13;102557.66;5088743;28;20023;-82
2021/12/22 03:36:45;;;;;;;53.28;26.45;;;;;;;-4.06;90.16;102557.53;5088937;28;20118;-82
2021/12/22 03:39:13;;;;;;;55.08;26.10;;;;;;;-4.04;90.01;102565.28;5089868;28;20403;-83
2021/12/22 03:41:39;;;;;;;52.97;25.17;;;;;;;-4.06;90.26;102572.97;5089039;28;20107;-83
2021/12/22 03:44:05;;;;;;;56.08;26.65;;;;;;;-4.08;90.11;102559.22;5085399;28;20039;-83
2021/12/22 03:46:30;;;;;;;51.60;25.30;;;;;;;-4.07;90.59;102560.97;5088506;28;20475;-82
2021/12/22 03:48:58;;;;;;;54.58;25.50;;;;;;;-4.05;90.21;102559.28;5089142;28;20028;-82
2021/12/22 03:51:24;;;;;;;55.50;26.35;;;;;;;-4.13;90.23;102535.19;5087060;28;20032;-83
2021/12/22 03:53:49;;;;;;;49.17;25.17;;;;;;;-4.10;90.27;102540.34;5089567;28;20066;-83
2021/12/22 03:56:15;;;;;;;53.55;24.88;;;;;;;-4.11;90.09;102542.06;5086703;28;20471;-83
2021/12/22 03:58:40;;;;;;;54.38;26.08;;;;;;;-4.16;90.27;102535.13;5086077;28;20035;-82
2021/12/22 04:01:05;;;;;;;55.20;24.92;;;;;;;-4.14;90.21;102554.88;5085204;28;20395;-82
2021/12/22 04:03:34;;;;;;;54.20;25.25;;;;;;;-4.17;90.36;102548.84;5095569;28;20032;-82
2021/12/22 04:05:59;;;;;;;48.20;24.65;;;;;;;-4.15;90.39;102552.28;5088788;28;20020;-82
2021/12/22 04:08:25;;;;;;;51.83;24.67;;;;;;;-4.13;90.86;102556.59;5087756;28;20055;-82
2021/12/22 04:10:51;;;;;;;50.78;24.70;;;;;;;-4.12;90.86;102545.47;5089388;28;20068;-83
2021/12/22 04:13:17;;;;;;;50.92;24.08;;;;;;;-4.05;91.42;102549.00;5093660;28;20542;-83
2021/12/22 04:15:44;;;;;;;51.65;24.08;;;;;;;-4.11;91.70;102543.78;5083145;28;20024;-82
2021/12/22 04:18:10;;;;;;;52.97;24.15;;;;;;;-4.08;92.33;102543.81;5084154;28;20386;-82
2021/12/22 04:20:35;;;;;;;48.55;23.58;;;;;;;-4.02;92.07;102541.31;5088290;28;20020;-82
2021/12/22 04:23:02;;;;;;;50.53;24.20;;;;;;;-3.94;92.62;102547.44;5087709;28;20035;-82
2021/12/22 04:25:27;;;;;;;49.42;23.48;;;;;;;-3.91;92.82;102536.34;5087443;28;20016;-82
2021/12/22 04:28:05;;;;;;;49.88;24.48;;;;;;;-3.87;93.36;102536.41;5089417;28;20024;-82
2021/12/22 04:30:32;;;;;;;49.28;23.10;;;;;;;-3.85;93.62;102536.41;5088828;28;20148;-82
2021/12/22 04:33:02;;;;;;;49.72;23.67;;;;;;;-3.82;93.39;102526.16;5085473;28;20061;-82
2021/12/22 04:35:28;;;;;;;47.85;23.88;;;;;;;-3.80;94.02;102525.34;5082719;28;20024;-83
2021/12/22 04:37:53;;;;;;;49.92;23.45;;;;;;;-3.69;93.85;102532.31;5088590;28;20137;-82
2021/12/22 04:40:19;;;;;;;44.05;23.05;;;;;;;-3.69;93.86;102522.03;5089305;28;20055;-82
2021/12/22 04:42:45;;;;;;;43.97;22.67;;;;;;;-3.66;94.10;102522.06;5088811;28;20019;-81
2021/12/22 04:45:12;;;;;;;42.00;21.92;;;;;;;-3.61;93.68;102528.13;5088897;28;20078;-81
2021/12/22 04:47:38;;;;;;;43.97;22.92;;;;;;;-3.60;93.76;102532.41;5088223;28;20028;-82
2021/12/22 04:50:09;;;;;;;45.78;23.25;;;;;;;-3.58;93.94;102528.19;5082166;28;20824;-82
2021/12/22 04:52:42;;;;;;;45.30;22.48;;;;;;;-3.64;93.61;102513.50;5083250;28;20038;-82
2021/12/22 04:55:08;;;;;;;49.50;22.52;;;;;;;-3.66;93.39;102516.91;5088272;28;20024;-82
2021/12/22 04:57:33;;;;;;;41.35;21.27;;;;;;;-3.57;93.72;102527.34;5087641;28;20024;-82
2021/12/22 05:00:00;;;;;;;45.22;22.58;;;;;;;-3.57;93.65;102527.34;5087158;28;20043;-82
2021/12/22 05:02:26;;;;;;;44.75;22.38;;;;;;;-3.56;93.26;102531.63;5081233;28;20039;-81
2021/12/22 05:04:52;;;;;;;40.65;20.50;;;;;;;-3.55;93.46;102525.63;5081886;28;20028;-82
2021/12/22 05:07:17;;;;;;;41.13;21.33;;;;;;;-3.58;92.99;102512.75;5079017;28;20032;-82
2021/12/22 05:09:42;;;;;;;39.10;21.02;;;;;;;-3.58;93.35;102516.19;5087615;28;20077;-81
2021/12/22 05:12:08;;;;;;;36.65;19.67;;;;;;;-3.59;93.11;102514.44;5088051;28;20020;-82
2021/12/22 05:14:34;;;;;;;41.58;20.25;;;;;;;-3.61;92.68;102505.81;5092537;28;20039;-82
2021/12/22 05:17:02;;;;;;;34.80;20.17;;;;;;;-3.58;92.77;102510.16;5089715;28;20438;-81
2021/12/22 05:19:27;;;;;;;33.50;19.48;;;;;;;-3.60;93.17;102511.84;5091071;28;20019;-81
2021/12/22 05:21:54;;;;;;;38.25;19.17;;;;;;;-3.68;92.56;102493.75;5092072;28;20094;-81
2021/12/22 05:24:19;;;;;;;39.83;19.80;;;;;;;-3.57;92.72;102511.91;5084188;28;20047;-81
2021/12/22 05:26:45;;;;;;;37.47;19.38;;;;;;;-3.59;92.58;102513.59;5091390;28;20079;-82
2021/12/22 05:29:12;;;;;;;33.10;18.38;;;;;;;-3.60;93.06;102516.97;5092029;28;20047;-81
2021/12/22 05:31:37;;;;;;;34.80;19.42;;;;;;;-3.63;92.66;102514.38;5091835;28;20039;-82
2021/12/22 05:34:02;;;;;;;38.25;19.90;;;;;;;-3.71;92.44;102513.44;5091439;28;20019;-82
2021/12/22 05:36:28;;;;;;;35.45;19.70;;;;;;;-3.66;92.81;102516.91;5091373;28;20020;-82
2021/12/22 05:38:53;;;;;;;32.85;19.08;;;;;;;-3.68;92.79;102508.31;5090027;28;20120;-82
2021/12/22 05:41:22;;;;;;;37.25;18.75;;;;;;;-3.66;92.55;102506.63;5085611;28;20041;-81
2021/12/22 05:43:48;;;;;;;34.90;19.20;;;;;;;-3.66;93.10;102501.47;5090041;28;20484;-82
2021/12/22 05:46:14;;;;;;;43.25;20.42;;;;;;;-3.66;92.79;102498.91;5090518;28;20038;-81
2021/12/22 05:48:39;;;;;;;38.60;19.42;;;;;;;-3.64;92.92;102494.66;5091752;28;20062;-81
2021/12/22 05:51:05;;;;;;;37.38;19.60;;;;;;;-3.65;92.81;102492.91;5091926;28;20043;-81
2021/12/22 05:53:31;;;;;;;33.10;18.85;;;;;;;-3.69;92.73;102496.31;5090624;28;20414;-81
2021/12/22 05:55:57;;;;;;;37.15;19.50;;;;;;;-3.71;92.55;102496.28;5087090;28;20090;-81
2021/12/22 05:58:23;;;;;;;33.15;18.17;;;;;;;-3.76;92.59;102486.81;5081960;28;20434;-81
2021/12/22 06:00:49;;;;;;;34.20;18.13;;;;;;;-3.70;92.34;102497.16;5091493;28;20109;-81
2021/12/22 06:03:14;;;;;;;29.55;18.38;;;;;;;-3.72;92.58;102489.41;5090888;28;20103;-81
2021/12/22 06:05:43;;;;;;;35.97;19.25;;;;;;;-3.80;92.36;102471.34;5091689;28;20036;-81
2021/12/22 06:08:09;;;;;;;36.83;18.60;;;;;;;-3.85;92.58;102469.56;5091137;28;20042;-81
2021/12/22 06:10:35;;;;;;;36.75;18.15;;;;;;;-3.75;92.32;102491.09;5090799;28;20020;-81
2021/12/22 06:13:05;;;;;;;40.08;18.88;;;;;;;-3.76;92.34;102495.38;5088877;28;20394;-81
2021/12/22 06:15:30;;;;;;;33.65;18.80;;;;;;;-3.83;92.38;102489.31;5091075;28;20020;-81
2021/12/22 06:17:58;;;;;;;32.78;18.90;;;;;;;-3.78;92.39;102497.06;5091334;28;20027;-81
2021/12/22 06:20:24;;;;;;;31.40;17.33;;;;;;;-3.83;92.64;102484.16;5089556;28;20047;-81
2021/12/22 06:22:50;;;;;;;34.92;19.00;;;;;;;-3.86;92.51;102499.56;5089128;28;20062;-81
2021/12/22 06:25:16;;;;;;;32.88;18.23;;;;;;;-3.86;91.46;102504.69;5090614;28;20016;-80
2021/12/22 06:27:44;;;;;;;32.17;17.63;;;;;;;-3.88;91.55;102493.53;5090688;28;20051;-81
2021/12/22 06:30:10;;;;;;;33.08;18.15;;;;;;;-3.91;91.50;102490.94;5087620;28;20111;-81
2021/12/22 06:32:36;;;;;;;34.13;17.55;;;;;;;-3.92;91.90;102489.19;5087324;28;20544;-80
2021/12/22 06:35:01;;;;;;;33.17;17.80;;;;;;;-3.90;91.90;102495.22;5091353;28;20040;-81
2021/12/22 06:37:26;;;;;;;36.40;17.80;;;;;;;-3.91;91.59;102488.38;5089726;28;20050;-80
2021/12/22 06:39:52;;;;;;;31.58;17.20;;;;;;;-3.98;91.20;102494.28;5091154;28;20102;-80
2021/12/22 06:42:17;;;;;;;32.58;17.52;;;;;;;-3.97;91.50;102501.16;5089916;28;20028;-80
2021/12/22 06:44:43;;;;;;;34.67;17.75;;;;;;;-3.95;91.61;102508.88;5090768;28;20028;-80
2021/12/22 06:47:10;;;;;;;36.78;17.90;;;;;;;-4.06;91.77;102490.72;5088920;28;20028;-80
2021/12/22 06:49:36;;;;;;;28.80;16.55;;;;;;;-4.00;91.35;102507.91;5089113;28;20134;-80
2021/12/22 06:52:02;;;;;;;30.17;16.60;;;;;;;-4.07;91.27;102508.69;5090287;28;20082;-80
2021/12/22 06:54:27;;;;;;;33.08;17.23;;;;;;;-4.13;90.60;102497.50;5087866;28;20039;-80
2021/12/22 06:56:53;;;;;;;33.85;17.17;;;;;;;-4.15;90.89;102496.63;5089658;28;20024;-80
2021/12/22 06:59:18;;;;;;;27.20;16.63;;;;;;;-4.12;91.14;102516.34;5088032;28;20038;-80
2021/12/22 07:01:45;;;;;;;29.23;17.23;;;;;;;-4.19;90.75;102504.25;5084179;28;20028;-80
2021/12/22 07:04:10;;;;;;;32.88;16.95;;;;;;;-4.22;91.23;102502.53;5085059;28;20024;-80
2021/12/22 07:06:36;;;;;;;32.03;17.98;;;;;;;-4.16;91.52;102509.44;5089451;28;20494;-80
2021/12/22 07:09:03;;;;;;;32.60;17.70;;;;;;;-4.18;91.75;102506.84;5089918;28;20442;-80
2021/12/22 07:11:29;;;;;;;29.35;17.42;;;;;;;-4.21;91.50;102501.69;5088604;28;20088;-80
2021/12/22 07:13:56;;;;;;;30.10;16.80;;;;;;;-4.22;91.37;102496.53;5095764;28;20032;-80
2021/12/22 07:16:22;;;;;;;33.70;17.45;;;;;;;-4.24;91.73;102483.66;5089230;28;20085;-80
2021/12/22 07:18:47;;;;;;;31.48;18.50;;;;;;;-4.13;91.66;102497.50;5088994;28;20031;-80
2021/12/22 07:21:12;;;;;;;28.27;16.73;;;;;;;-4.12;92.44;102500.94;5080245;28;20375;-80
2021/12/22 07:23:38;;;;;;;32.30;17.65;;;;;;;-4.09;92.47;102500.97;5088699;28;20059;-80
2021/12/22 07:26:03;;;;;;;34.55;18.15;;;;;;;-4.15;92.76;102488.91;5088589;28;20102;-80
2021/12/22 07:28:28;;;;;;;34.17;18.45;;;;;;;-4.10;92.70;102494.97;5088607;28;20032;-80
2021/12/22 07:30:54;;;;;;;29.48;17.55;;;;;;;-4.09;92.37;102506.09;5087593;28;20490;-81
2021/12/22 07:33:19;;;;;;;30.25;17.08;;;;;;;-4.09;92.56;102500.97;5087949;28;20030;-81
2021/12/22 07:36:03;;;;;;;29.55;17.10;;;;;;;-4.07;92.80;102499.28;5087467;28;20066;-81
2021/12/22 07:38:48;;;;;;;33.03;18.08;;;;;;;-4.02;92.69;102513.03;5085751;28;20098;-81
2021/12/22 07:41:13;;;;;;;32.08;17.30;;;;;;;-4.01;92.76;102509.63;5085654;28;20107;-81
2021/12/22 07:43:39;;;;;;;30.67;16.88;;;;;;;-4.02;92.66;102502.75;5089065;28;20135;-80
2021/12/22 07:46:08;;;;;;;32.00;17.55;;;;;;;-4.09;92.93;102498.41;5086970;28;20020;-82
2021/12/22 07:48:33;;;;;;;29.15;17.30;;;;;;;-4.03;92.95;102503.59;5086866;28;20028;-81
2021/12/22 07:50:59;;;;;;;26.38;16.25;;;;;;;-4.12;92.93;102491.50;5089142;28;20042;-81
2021/12/22 07:53:25;;;;;;;29.50;16.95;;;;;;;-4.06;92.76;102495.00;5086326;28;20100;-81
2021/12/22 07:55:53;;;;;;;30.00;16.77;;;;;;;-4.06;92.85;102495.84;5089516;28;20035;-82
2021/12/22 07:58:20;;;;;;;31.88;17.35;;;;;;;-4.10;92.90;102483.81;5086432;28;20022;-82
2021/12/22 08:00:45;;;;;;;32.78;17.42;;;;;;;-4.06;92.73;102489.84;5088433;28;20028;-82
2021/12/22 08:03:11;;;;;;;28.63;16.80;;;;;;;-4.03;93.22;102495.91;5088080;28;20028;-82
2021/12/22 08:05:37;;;;;;;34.13;17.02;;;;;;;-4.05;92.77;102481.31;5088718;28;20031;-80
2021/12/22 08:08:03;;;;;;;30.27;17.10;;;;;;;-4.04;92.97;102485.59;5086362;28;20036;-82
2021/12/22 08:10:28;;;;;;;31.85;16.67;;;;;;;-3.98;92.88;102504.56;5082648;28;20550;-81
2021/12/22 08:12:57;;;;;;;28.55;16.45;;;;;;;-3.98;92.79;102501.13;5089084;28;20024;-81
2021/12/22 08:15:22;;;;;;;32.50;16.98;;;;;;;-4.03;92.86;102489.91;5085084;28;20399;-81
2021/12/22 08:17:48;;;;;;;31.42;16.40;;;;;;;-3.99;92.98;102494.25;5087382;28;20034;-82
2021/12/22 08:20:13;;;;;;;28.05;16.48;;;;;;;-3.98;93.20;102489.13;5089153;28;20087;-81
2021/12/22 08:22:39;;;;;;;31.20;16.42;;;;;;;-3.90;93.33;102495.22;5088496;28;20030;-82
2021/12/22 08:25:06;;;;;;;32.83;16.42;;;;;;;-3.85;93.42;102500.41;5089145;28;20024;-82
2021/12/22 08:27:32;;;;;;;31.33;17.70;;;;;;;-3.82;93.66;102500.44;5084163;28;20036;-82
2021/12/22 08:29:58;;;;;;;33.42;15.98;;;;;;;-3.88;93.64;102472.09;5089289;28;20024;-82
2021/12/22 08:32:23;;;;;;;28.27;16.65;;;;;;;-3.79;94.15;102490.19;5093329;28;20023;-81
2021/12/22 08:34:54;;;;;;;27.55;16.88;;;;;;;-3.79;93.78;102493.63;5097014;28;20539;-81
2021/12/22 08:40:05;;;;;;;30.25;16.50;;;;;;;-3.79;93.36;102485.91;5090150;28;20043;-81
2021/12/22 08:42:30;;;;;;;29.65;16.20;;;;;;;-3.68;93.98;102503.19;5088206;28;20024;-81
2021/12/22 08:44:55;;;;;;;28.60;15.80;;;;;;;-3.76;93.86;102484.22;5088589;28;20589;-81
2021/12/22 08:47:28;;;;;;;33.58;16.88;;;;;;;-3.65;93.94;102492.91;5087982;28;20093;-79
2021/12/22 08:49:55;;;;;;;30.48;16.35;;;;;;;-3.66;93.93;102491.19;5087869;28;20020;-80
2021/12/22 08:52:22;;;;;;;30.77;17.40;;;;;;;-3.64;93.84;102499.78;5089323;28;20028;-80
2021/12/22 08:54:48;;;;;;;30.55;17.13;;;;;;;-3.64;94.08;102492.06;5092333;28;20396;-80
2021/12/22 08:57:15;;;;;;;25.58;16.38;;;;;;;-3.59;94.00;102493.00;5090703;28;20020;-78
2021/12/22 08:59:40;;;;;;;36.28;17.88;;;;;;;-3.57;93.50;102504.19;5092930;28;20032;-79
2021/12/22 09:02:05;;;;;;;33.03;17.90;;;;;;;-3.57;94.08;102499.91;5092930;28;20020;-79
2021/12/22 09:04:31;;;;;;;30.77;16.50;;;;;;;-3.53;94.14;102496.50;5074267;28;20679;-80
2021/12/22 09:06:56;;;;;;;35.35;17.17;;;;;;;-3.52;94.26;102484.50;5071063;28;20025;-79
2021/12/22 09:09:22;;;;;;;32.17;16.88;;;;;;;-3.51;94.29;102483.66;5071728;28;20029;-82
2021/12/22 09:11:48;;;;;;;35.30;17.58;;;;;;;-3.50;93.95;102486.25;5070651;28;20480;-82
2021/12/22 09:14:14;;;;;;;31.02;17.73;;;;;;;-3.44;94.36;102485.44;5085722;28;20042;-80
2021/12/22 09:16:40;;;;;;;30.27;17.88;;;;;;;-3.36;94.25;102496.66;5090086;28;20074;-80
2021/12/22 09:19:07;;;;;;;32.08;18.17;;;;;;;-3.30;94.01;102495.84;5091951;28;20117;-79
2021/12/22 09:21:34;;;;;;;33.85;17.48;;;;;;;-3.30;94.45;102488.13;5091324;28;20414;-79
2021/12/22 09:24:03;;;;;;;32.80;18.40;;;;;;;-3.27;94.24;102481.31;5091948;28;20016;-80
2021/12/22 09:26:29;;;;;;;27.65;17.95;;;;;;;-3.26;94.68;102485.59;5091695;28;20012;-82
2021/12/22 09:28:57;;;;;;;27.33;18.17;;;;;;;-3.25;94.25;102489.91;5092011;28;20016;-80
2021/12/22 09:31:23;;;;;;;31.95;18.50;;;;;;;-3.15;94.50;102493.44;5089811;28;20387;-82
2021/12/22 09:33:49;;;;;;;33.78;18.55;;;;;;;-3.17;94.60;102487.44;5092099;28;20027;-82
2021/12/22 09:36:16;;;;;;;32.15;18.08;;;;;;;-3.08;94.43;102481.50;5090660;28;20020;-82
2021/12/22 09:38:44;;;;;;;29.27;18.10;;;;;;;-3.10;94.67;102473.75;5090854;28;20114;-82
2021/12/22 09:41:14;;;;;;;29.13;17.05;;;;;;;-3.00;94.31;102478.13;5092203;28;20399;-82
2021/12/22 09:43:40;;;;;;;28.75;17.35;;;;;;;-2.99;94.33;102476.41;5094924;28;20032;-82
2021/12/22 09:46:11;;;;;;;27.70;16.92;;;;;;;-2.88;95.16;102482.50;5099164;28;20080;-80
2021/12/22 09:53:37;;;;;;;32.35;17.92;;;;;;;-2.74;95.26;102473.19;5087384;28;20438;-81
2021/12/22 09:56:04;;;;;;;30.65;18.02;;;;;;;-2.70;95.12;102479.22;5091746;28;20468;-79
2021/12/22 09:58:30;;;;;;;32.25;18.08;;;;;;;-2.68;94.83;102465.50;5091468;28;20016;-80
2021/12/22 10:00:56;;;;;;;27.45;17.13;;;;;;;-2.57;94.63;102478.44;5084106;28;20081;-80
2021/12/22 10:03:23;;;;;;;33.10;17.65;;;;;;;-2.54;94.35;102487.03;5068204;28;20116;-80
2021/12/22 10:05:49;;;;;;;28.60;16.95;;;;;;;-2.46;94.24;102486.22;5072128;28;20078;-80
2021/12/22 10:08:17;;;;;;;33.72;18.13;;;;;;;-2.42;94.45;102472.50;5070644;28;20435;-79
2021/12/22 10:10:46;;;;;;;24.52;17.10;;;;;;;-2.36;94.46;102475.16;5087364;28;20058;-79
2021/12/22 10:13:25;;;;;;;27.27;17.02;;;;;;;-2.35;94.67;102467.41;5076704;28;20016;-80
2021/12/22 10:15:50;;;;;;;30.02;16.13;;;;;;;-2.30;94.53;102462.28;5090829;28;20024;-80
2021/12/22 10:18:19;;;;;;;28.30;17.13;;;;;;;-2.25;94.02;102458.00;5087834;28;20027;-80
2021/12/22 10:20:47;;;;;;;32.20;17.27;;;;;;;-2.19;94.42;102458.03;5070625;28;20028;-79
2021/12/22 10:23:30;;;;;;;28.00;16.55;;;;;;;-2.11;94.21;102451.19;5077455;28;20066;-79
2021/12/22 10:25:57;;;;;;;28.42;17.02;;;;;;;-2.05;94.59;102460.66;5090581;28;20126;-80
2021/12/22 10:28:25;;;;;;;29.10;16.75;;;;;;;-2.00;94.29;102449.53;5089167;28;20055;-80
2021/12/22 10:30:55;;;;;;;26.10;16.85;;;;;;;-1.97;93.73;102454.69;5090461;28;20032;-80
2021/12/22 10:33:24;;;;;;;25.95;16.50;;;;;;;-1.94;94.27;102449.56;5090837;28;20027;-80
2021/12/22 10:35:58;;;;;;;30.58;17.13;;;;;;;-1.92;93.98;102442.69;5089541;28;20023;-79
2021/12/22 10:38:27;;;;;;;29.20;16.38;;;;;;;-1.85;94.42;102447.84;5090755;28;20048;-79
2021/12/22 10:40:58;;;;;;;27.05;16.00;;;;;;;-1.78;93.89;102452.16;5091471;28;20024;-79
2021/12/22 10:43:27;;;;;;;25.70;15.43;;;;;;;-1.76;94.21;102440.13;5084781;28;20050;-79
2021/12/22 10:45:57;;;;;;;24.63;15.48;;;;;;;-1.69;93.76;102434.13;5081990;28;20389;-79
2021/12/22 10:51:32;;;;;;;26.42;15.48;;;;;;;-1.57;92.98;102434.16;5027152;28;20035;-79
2021/12/22 10:53:59;;;;;;;25.27;14.85;;;;;;;-1.53;93.11;102435.91;5028264;28;20057;-79
2021/12/22 10:56:31;;;;;;;27.33;15.38;;;;;;;-1.46;93.61;102426.44;5054205;28;20365;-79
2021/12/22 10:59:09;;;;;;;22.50;15.25;;;;;;;-1.41;92.66;102419.56;5090078;28;20032;-79
2021/12/22 11:01:37;;;;;;;23.70;14.75;;;;;;;-1.38;92.77;102410.09;5088136;28;20028;-79
2021/12/22 11:04:15;;;;;;;23.45;14.88;;;;;;;-1.31;92.43;102406.63;5094226;28;20057;-79
2021/12/22 11:06:40;;;;;;;23.50;15.23;;;;;;;-1.26;92.50;102410.06;5111013;28;20034;-79
2021/12/22 11:09:15;;;;;;;25.55;14.65;;;;;;;-1.20;92.38;102408.34;5126792;27;20024;-79
2021/12/22 11:11:46;;;;;;;21.92;14.73;;;;;;;-1.14;92.95;102408.38;5110044;28;20034;-79
2021/12/22 11:14:19;;;;;;;24.08;14.70;;;;;;;-1.08;92.00;102404.06;5094974;28;20028;-79
2021/12/22 11:17:01;;;;;;;24.05;14.18;;;;;;;-0.98;91.33;102399.75;5087964;28;20097;-79
2021/12/22 11:19:36;;;;;;;22.67;14.18;;;;;;;-0.91;91.47;102400.59;5088281;28;20066;-79
2021/12/22 11:22:12;;;;;;;20.95;14.25;;;;;;;-0.85;91.04;102406.59;5090391;28;20038;-78
2021/12/22 11:24:43;;;;;;;23.55;14.32;;;;;;;-0.82;91.09;102400.56;5088142;28;20480;-79
2021/12/22 11:27:10;;;;;;;21.55;14.02;;;;;;;-0.73;90.77;102401.44;5089291;28;20608;-79
2021/12/22 11:29:38;;;;;;;22.95;14.82;;;;;;;-0.66;90.91;102397.97;5089441;28;20020;-78